Matanzas, Cuba
Current Conditions -  °F | °C
As of 5:50 PM on Friday 28 Nov 2014 (Local Time) from MUVR Reporting Station
Scattered Clouds Scattered Clouds  
Wind Chill: 70°   Ceiling: Unl
Heat Index: 70°   Visibility: 6mi
Dew Point: 55°   Wind: 13mph
Humidity: 60%   Direction: 30°NNE
Pressure: 30.12"   Gusts: NA
Location:  23.06°N, 81.58°W
Report Text: MUVR 282150Z 03011KT 9000 SCT030 21/13 Q1020
Loading
Personal Weather Stations






























Interactive Weather Map New forecast layout! Learn more

10-Day Weather Forecast

Advertisements
Track Severe Weather on mobile